Lemoore Naval Air Station (Reeves Field) Airport
KNLC : rendu visible

Aérodrome :











RETROUVEZ-NOUS SUR...

 
LOGIN :

S'inscrire | Disclaimer

   EN    FR    IT 

 









Légende :    VFR   VFR Marginal   IFR   IFR Intensif   IFR Très Intensif
Visi : 
Plafond : 
>= 8 km
>= 3000ft
5 à 8 km
1000 à 3000 ft
1500m à 5 km
500 à 1000 ft
800 à 1500m
200 à 500 ft
< 800m
< 200 ft
Symboles :   Orages  Brouillard  Fortes neiges  Fortes précipitations  Vent > 20 kt






- Altitude de l'aérodrome : 232 ft


KNLC - Lemoore Naval Air Station (Reeves Field)

DERNIER METAR :
  • 210856Z AUTO 14008KT 10SM CLR 10/06 A2972 RMK AO2 SLP063 T01000061 51014

METARs EXPIRÉS :
  • 210756Z 14008KT 10SM SCT100 09/06 A2971 RMK AO2 SLP061 RH/79 T00940061 401720061
  • 210656Z 15009KT 10SM FEW100 09/06 A2969 RMK AO2 SLP056 RH/79 T00890061

TAF COR TAF KNLC
Valide du 21 à 07h jusqu'au 22 à 07h UTC


2107/2207 13008KT 9999 FEW100 650709 641602 531809 532709 533601 QNH2964INS
TEMPO 2109/2115 VRB06KT 9999 BKN035 BKN100
FM211500 VRB06KT 9999 BKN035 BKN100 600000 500000 QNH2975INS
FM211900 VRB06KT 9999 FEW065 SCT200 QNH2979INS AUTOMATED SENSOR METWATCH 2108 TIL 2115 T06/2113Z T19/2123Z COR 0729 FS30012



MET'MAP, la Météo Aéronautique d'un coup d'oeil ! - Copyright ORBIFLY Décembre 2007 - Disclaimer

ORBIFLY MET'MAP TEAM :

Programmation & Développement : Alexandra Zaïnal
Conception & Développement : Baudouin d'Aumeries
Co-Programmation & Développement : Marc-Olivier Méhu
Soutien technique & logistique : Manuel Goepfert

Contact : metmap@orbifly.com




SOURCES & CREDITS :

   NOAA       Earth
Advisory